岡山グライダークラブ活動状況掲示板あなたは無料カウンター人目の訪問者です

岡山グライダークラブ
岡山市浦安南町639-1 岡南飛行場
 使用機:シャイベ式 SF25C型 ファルケ   JA2330
      ヴァレンティン式17E型 タイフーン  JA2342
 練習日:毎日曜日  クラブルーム:電話 086-265-1810
この掲示板は岡山グライダークラブの活動状況をお知らせする掲示板です。
!!!この掲示板は投稿規制をしています。!!!
クラブ関連各種情報は 岡山グライダークラブクラブルーム      を       .
  ブリーフイング情報は  岡山グライダークラブブリーフィングルーム  をご覧下さい。 .
※写真はクリックすると拡大して見ることが出来ます。
岡南飛行場へのアクセス等は 岡南飛行場管理事務所 をご覧ください。
クラブの ホームページ ができました。

 
10月18日
by OGC at 2020/10/18(日) 19:46:13 No.20201018194155  削除コメント
1024 x 768 x 90,274バイト
No.1

10月18日
本日の参加者
  会員      14名
  その他      1名


@本日の様子






METAR
RJBK 180000Z VRB01KT 20KM FEW004ST SCT008ST BKN015CU 13/12 Q1022 A3020
RJOB 180000Z VRB02KT 9999 PRFG FEW000 SCT180 BKN/// 12/12 Q1022
RJOT 180000Z 14005KT 9999 FEW005 SCT130 BKN170 13/13 Q1022
RJOA 180000Z 29004KT 230V350 9999 FEW001 BKN/// 13/10 Q1023
TAF
RJOB 172306Z 1800/1906 07005KT 9999 FEW025 SCT045
RJOT 172307Z 1800/1906 05006KT 9999 FEW030
RJOA 172305Z 1800/1906 14005KT 9999 FEW030
     BECMG 1809/1811 32006KT
     BECMG 1821/1900 12005KT

今朝は雲が低く視程も悪い状態でしたが、日差しが当たりだすと視程もよくなり、
風もほとんどない絶好の着陸練習日和になりました。
訓練生はTGL訓練や滑空着陸、ライセンサーはNAVに出たり滑空時間を稼いで
いました。
また、本日、見学者1名が体験飛行をされました。


解散    17:50

1番機  11:50離陸 撤収機  17:10着陸 

SF25C JA2330 ファルケ     11Flt.3h40min  
17E   JA2342 タイフーン    05Flt.2h20min  
合計                    16Flt.6h00min

    << 戻る || ホームページ || 最新の掲示板へ